Main page
METAR-TAF:

METAR-TAF

Airports :

Madrid-Cuatro Vientos, Spain

Cuatro Vientos Airport

latitude: 40-23N, longitude: 003-47W, elevation: 690 m

Current weather observation

The report was made 7 hours and 52 minutes ago, at 20:00 UTC
Wind 4 kt from the Northwest
Temperature 22°C
Humidity 23%
Pressure 1022 hPa
Visibility 10 km or more
no clouds below 1500 m and no cumulonimbus

METAR: LEVS 192000Z 31004KT CAVOK 22/M00 Q1022

Time: 05:52 (03:52 UTC)

Forecast

The report was made 1 hour and 52 minutes ago, at 02:00 UTC
Forecast valid from 20 at 03 UTC to 20 at 12 UTC
Wind 5 kt from variable directions
Visibility 10 km or more
no clouds below 1500 m and no cumulonimbus
Temporary
from 20 at 03 UTC to 20 at 07 UTC
Wind 8 kt from the North

TAF: LEVS 200200Z 2003/2012 VRB05KT CAVOK TEMPO 2003/2007 01008KT

Weather observations and forecasts of more than 4000 airports (METAR and TAF reports).

The available stations are represented by yellow and red dots on the map.

Hover mouse over dot to see the name of the station.

Then click to see weather observations and forecasts.

To change the map : click on the green buttons with a black cross to zoom in, on the green button with a dash to zoom out, or on the green arrows for adjacent maps.


METAR-TAF: